createdAt,value
2017-09-06T00:00:16.312Z,21.70
2017-09-06T00:02:43.954Z,21.60
2017-09-06T00:05:12.672Z,21.70
2017-09-06T00:07:40.333Z,21.70
2017-09-06T00:10:07.997Z,21.60
2017-09-06T00:12:35.662Z,21.60
2017-09-06T00:15:03.329Z,21.60
2017-09-06T00:17:30.994Z,21.60
2017-09-06T00:19:59.182Z,21.60
2017-09-06T00:22:26.922Z,21.60
2017-09-06T00:24:55.290Z,21.60
2017-09-06T00:27:22.959Z,21.50
2017-09-06T00:29:50.747Z,21.50
2017-09-06T00:32:19.163Z,21.50
2017-09-06T00:34:46.891Z,21.50
2017-09-06T00:37:14.655Z,21.50
2017-09-06T00:39:42.533Z,21.50
2017-09-06T00:42:10.282Z,21.50
2017-09-06T00:44:38.128Z,21.50
2017-09-06T00:47:05.894Z,21.50
2017-09-06T00:49:33.581Z,21.40
2017-09-06T00:52:01.241Z,21.40
2017-09-06T00:54:28.904Z,21.40
2017-09-06T00:56:56.547Z,21.40
2017-09-06T00:59:24.201Z,21.40
2017-09-06T01:01:51.890Z,21.40
2017-09-06T01:04:19.525Z,21.40
2017-09-06T01:06:47.211Z,21.40
2017-09-06T01:09:14.847Z,21.30
2017-09-06T01:11:42.457Z,21.30
2017-09-06T01:14:10.181Z,21.30
2017-09-06T01:16:37.822Z,21.30
2017-09-06T01:19:05.490Z,21.30
2017-09-06T01:21:33.178Z,21.30
2017-09-06T01:24:00.817Z,21.30
2017-09-06T01:26:28.585Z,21.30
2017-09-06T01:28:56.273Z,21.20
2017-09-06T01:31:23.937Z,21.20
2017-09-06T01:33:51.565Z,21.20
2017-09-06T01:36:19.189Z,21.20
2017-09-06T01:38:46.926Z,21.20
2017-09-06T01:41:14.562Z,21.20
2017-09-06T01:43:42.240Z,21.20
2017-09-06T01:46:10.003Z,21.20
2017-09-06T01:48:37.677Z,21.20
2017-09-06T01:51:05.410Z,21.10
2017-09-06T01:53:33.085Z,21.10
2017-09-06T01:56:00.750Z,21.10
2017-09-06T01:58:28.370Z,21.10
2017-09-06T02:00:56.160Z,21.10
2017-09-06T02:03:23.825Z,21.10
2017-09-06T02:05:51.518Z,21.10
2017-09-06T02:08:19.138Z,21.10
2017-09-06T02:10:46.944Z,21.10
2017-09-06T02:13:14.588Z,21.10
2017-09-06T02:15:42.212Z,21.00
2017-09-06T02:18:09.915Z,21.00
2017-09-06T02:20:37.578Z,21.00
2017-09-06T02:23:05.214Z,21.00
2017-09-06T02:25:32.987Z,21.00
2017-09-06T02:28:00.633Z,21.00
2017-09-06T02:30:28.411Z,21.00
2017-09-06T02:32:56.300Z,21.00
2017-09-06T02:35:23.951Z,21.00
2017-09-06T02:37:51.586Z,21.00
2017-09-06T02:40:19.486Z,21.00
2017-09-06T02:42:47.229Z,20.90
2017-09-06T02:45:14.995Z,20.90
2017-09-06T02:47:42.756Z,20.90
2017-09-06T02:50:10.431Z,20.90
2017-09-06T02:52:38.112Z,20.90
2017-09-06T02:55:05.789Z,20.90
2017-09-06T02:57:33.418Z,20.90
2017-09-06T03:00:01.066Z,20.90
2017-09-06T03:02:28.834Z,20.90
2017-09-06T03:04:56.520Z,20.80
2017-09-06T03:07:24.274Z,20.80
2017-09-06T03:09:51.914Z,20.80
2017-09-06T03:12:19.552Z,20.80
2017-09-06T03:14:47.349Z,20.80
2017-09-06T03:17:15.033Z,20.80
2017-09-06T03:19:42.695Z,20.80
2017-09-06T03:22:10.318Z,20.80
2017-09-06T03:24:37.978Z,20.80
2017-09-06T03:27:05.610Z,20.80
2017-09-06T03:29:33.244Z,20.80
2017-09-06T03:32:01.083Z,20.80
2017-09-06T03:34:28.725Z,20.80
2017-09-06T03:36:56.515Z,20.80
2017-09-06T03:39:24.183Z,20.80
2017-09-06T03:41:51.837Z,20.80
2017-09-06T03:44:19.512Z,20.70
2017-09-06T03:46:47.283Z,20.80
2017-09-06T03:49:15.025Z,20.70
2017-09-06T03:51:42.650Z,20.70
2017-09-06T03:54:10.372Z,20.70
2017-09-06T03:56:38.137Z,20.70
2017-09-06T03:59:05.900Z,20.70
2017-09-06T04:01:33.559Z,20.70
2017-09-06T04:04:01.196Z,20.70
2017-09-06T04:06:29.726Z,20.70
2017-09-06T04:08:58.178Z,20.70
2017-09-06T04:11:25.923Z,20.70
2017-09-06T04:13:53.552Z,20.70
2017-09-06T04:16:21.272Z,20.70
2017-09-06T04:18:49.138Z,20.70
2017-09-06T04:21:16.803Z,20.70
2017-09-06T04:23:44.658Z,20.70
2017-09-06T04:26:12.514Z,20.70
2017-09-06T04:28:40.194Z,20.70
2017-09-06T04:31:07.956Z,20.70
2017-09-06T04:33:35.631Z,20.70
2017-09-06T04:36:03.477Z,20.70
2017-09-06T04:38:31.097Z,20.70
2017-09-06T04:40:58.753Z,20.70
2017-09-06T04:43:26.554Z,20.70
2017-09-06T04:45:54.318Z,20.60
2017-09-06T04:48:21.959Z,20.70
2017-09-06T04:50:49.625Z,20.60
2017-09-06T04:53:17.329Z,20.60
2017-09-06T04:55:45.110Z,20.60
2017-09-06T04:58:12.870Z,20.70
2017-09-06T05:00:40.532Z,20.70
2017-09-06T05:03:08.194Z,20.70
2017-09-06T05:05:35.833Z,20.70
2017-09-06T05:08:03.458Z,20.70
2017-09-06T05:10:31.213Z,20.70
2017-09-06T05:12:58.904Z,20.70
2017-09-06T05:15:26.625Z,20.70
2017-09-06T05:17:54.434Z,20.70
2017-09-06T05:20:22.062Z,20.70
2017-09-06T05:22:49.729Z,20.70
2017-09-06T05:25:17.380Z,20.70
2017-09-06T05:27:45.017Z,20.70
2017-09-06T05:30:12.773Z,20.70
2017-09-06T05:32:40.607Z,20.70
2017-09-06T05:35:08.249Z,20.70
2017-09-06T05:37:35.904Z,20.70
2017-09-06T05:40:03.598Z,20.80
2017-09-06T05:42:31.266Z,20.80
2017-09-06T05:44:58.897Z,20.80
2017-09-06T05:47:26.512Z,20.80
2017-09-06T05:49:54.170Z,20.80
2017-09-06T05:52:21.805Z,20.80
2017-09-06T05:54:49.466Z,20.90
2017-09-06T05:57:17.092Z,20.80
2017-09-06T05:59:44.722Z,20.90
2017-09-06T06:02:12.377Z,20.90
2017-09-06T06:04:39.996Z,20.90
2017-09-06T06:07:07.674Z,20.90
2017-09-06T06:09:35.347Z,20.90
2017-09-06T06:12:03.308Z,20.90
2017-09-06T06:14:31.099Z,20.90
2017-09-06T06:16:58.861Z,20.90
2017-09-06T06:19:26.594Z,21.00
2017-09-06T06:21:54.465Z,21.00
2017-09-06T06:24:22.132Z,20.90
2017-09-06T06:26:49.813Z,21.00
2017-09-06T06:29:17.478Z,21.00
2017-09-06T06:31:45.323Z,21.00
2017-09-06T06:34:12.992Z,21.00
2017-09-06T06:36:40.647Z,21.00
2017-09-06T06:39:08.274Z,21.00
2017-09-06T06:41:35.930Z,21.00
2017-09-06T06:44:03.578Z,21.00
2017-09-06T06:46:31.251Z,21.00
2017-09-06T06:48:58.897Z,21.00
2017-09-06T06:51:26.554Z,21.10
2017-09-06T06:53:54.270Z,21.10
2017-09-06T06:56:21.940Z,21.10
2017-09-06T06:58:49.596Z,21.10
2017-09-06T07:01:17.361Z,21.10
2017-09-06T07:03:45.043Z,21.20
2017-09-06T07:06:12.946Z,21.20
2017-09-06T07:08:40.594Z,21.30
2017-09-06T07:11:08.239Z,21.30
2017-09-06T07:13:35.979Z,21.30
2017-09-06T07:16:03.769Z,21.30
2017-09-06T07:18:31.381Z,21.40
2017-09-06T07:20:59.041Z,21.40
2017-09-06T07:23:26.679Z,21.40
2017-09-06T07:25:54.337Z,21.50
2017-09-06T07:28:21.971Z,21.50
2017-09-06T07:30:49.669Z,21.50
2017-09-06T07:33:17.290Z,21.60
2017-09-06T07:35:44.970Z,21.60
2017-09-06T07:38:12.625Z,21.70
2017-09-06T07:40:40.245Z,21.70
2017-09-06T07:43:07.891Z,21.80
2017-09-06T07:45:35.530Z,21.80
2017-09-06T07:48:03.189Z,21.80
2017-09-06T07:50:30.829Z,21.90
2017-09-06T07:52:58.474Z,21.90
2017-09-06T07:55:26.129Z,21.90
2017-09-06T07:57:53.762Z,21.90
2017-09-06T08:00:21.382Z,21.90
2017-09-06T08:02:49.059Z,22.00
2017-09-06T08:05:16.769Z,22.00
2017-09-06T08:07:50.180Z,22.10
2017-09-06T08:10:17.814Z,22.10
2017-09-06T08:12:45.596Z,22.10
2017-09-06T08:15:13.267Z,22.20
2017-09-06T08:17:40.910Z,22.20
2017-09-06T08:20:08.569Z,22.30
2017-09-06T08:22:36.258Z,22.30
2017-09-06T08:25:04.110Z,22.40
2017-09-06T08:27:31.789Z,22.50
2017-09-06T08:29:59.442Z,22.60
2017-09-06T08:32:27.099Z,22.60
2017-09-06T08:34:54.857Z,22.70
2017-09-06T08:37:22.627Z,22.70
2017-09-06T08:39:50.386Z,22.80
2017-09-06T08:42:18.021Z,22.90
2017-09-06T08:44:45.741Z,22.90
2017-09-06T08:47:13.385Z,23.00
2017-09-06T08:49:41.055Z,23.10
2017-09-06T08:52:08.673Z,23.20
2017-09-06T08:54:36.299Z,23.20
2017-09-06T08:57:03.941Z,23.30
2017-09-06T08:59:31.727Z,23.30
2017-09-06T09:01:59.549Z,23.40
2017-09-06T09:04:27.186Z,23.50
2017-09-06T09:06:54.879Z,23.50
2017-09-06T09:09:22.744Z,23.60
2017-09-06T09:11:50.377Z,23.60
2017-09-06T09:14:18.185Z,23.70
2017-09-06T09:16:45.824Z,23.70
2017-09-06T09:19:13.445Z,23.80
2017-09-06T09:21:41.121Z,23.80
2017-09-06T09:24:08.754Z,23.90
2017-09-06T09:26:36.456Z,23.90
2017-09-06T09:29:04.153Z,24.00
2017-09-06T09:31:31.785Z,24.00
2017-09-06T09:33:59.461Z,24.00
2017-09-06T09:36:27.136Z,24.10
2017-09-06T09:38:54.795Z,24.10
2017-09-06T09:41:22.452Z,24.10
2017-09-06T09:43:50.215Z,24.20
2017-09-06T09:46:17.853Z,24.20
2017-09-06T09:48:45.478Z,24.20
2017-09-06T09:51:13.149Z,24.30
2017-09-06T09:53:40.774Z,24.30
2017-09-06T09:56:08.450Z,24.30
2017-09-06T09:58:36.182Z,24.30
2017-09-06T10:01:03.866Z,24.30
2017-09-06T10:03:31.527Z,24.40
2017-09-06T10:05:59.272Z,24.40
2017-09-06T10:08:27.138Z,24.40
2017-09-06T10:10:54.767Z,24.40
2017-09-06T10:13:22.679Z,24.40
2017-09-06T10:15:50.553Z,24.40
2017-09-06T10:18:18.296Z,24.40
2017-09-06T10:20:45.959Z,24.40
2017-09-06T10:23:13.591Z,24.40
2017-09-06T10:25:41.383Z,24.40
2017-09-06T10:28:09.035Z,24.40
2017-09-06T10:30:36.811Z,24.40
2017-09-06T10:33:04.606Z,24.40
2017-09-06T10:35:32.244Z,24.40
2017-09-06T10:37:59.919Z,24.40
2017-09-06T10:40:27.765Z,24.40
2017-09-06T10:42:55.447Z,24.40
2017-09-06T10:45:23.212Z,24.40
2017-09-06T10:47:50.847Z,24.40
2017-09-06T10:50:18.471Z,24.50
2017-09-06T10:52:46.195Z,24.50
2017-09-06T10:55:13.823Z,24.50
2017-09-06T10:57:41.491Z,24.60
2017-09-06T11:00:09.121Z,24.60
2017-09-06T11:02:36.750Z,24.60
2017-09-06T11:05:04.407Z,24.60
2017-09-06T11:07:32.057Z,24.60
2017-09-06T11:09:59.714Z,24.60
2017-09-06T11:12:27.492Z,24.70
2017-09-06T11:14:55.142Z,24.70
2017-09-06T11:17:22.760Z,24.80
2017-09-06T11:19:50.475Z,24.80
2017-09-06T11:22:18.082Z,24.80
2017-09-06T11:24:45.708Z,24.80
2017-09-06T11:27:13.552Z,24.80
2017-09-06T11:29:41.211Z,24.80
2017-09-06T11:32:09.001Z,24.80
2017-09-06T11:34:36.839Z,24.80
2017-09-06T11:37:04.474Z,24.80
2017-09-06T11:39:32.152Z,24.80
2017-09-06T11:41:59.810Z,24.80
2017-09-06T11:44:27.481Z,24.80
2017-09-06T11:46:55.153Z,24.80
2017-09-06T11:49:23.022Z,24.80
2017-09-06T11:51:50.799Z,24.80
2017-09-06T11:54:18.444Z,24.80
2017-09-06T11:56:46.123Z,24.80
2017-09-06T11:59:13.884Z,24.80
2017-09-06T12:01:41.635Z,24.70
2017-09-06T12:04:09.287Z,24.70
2017-09-06T12:06:37.060Z,24.60
2017-09-06T12:09:04.688Z,24.60
2017-09-06T12:11:32.517Z,24.50
2017-09-06T12:14:00.153Z,24.50
2017-09-06T12:16:27.785Z,24.50
2017-09-06T12:18:55.445Z,24.40
2017-09-06T12:21:23.071Z,24.30
2017-09-06T12:23:50.898Z,24.30
2017-09-06T12:26:18.766Z,24.20
2017-09-06T12:28:46.454Z,24.10
2017-09-06T12:31:14.090Z,24.00
2017-09-06T12:33:41.755Z,24.00
2017-09-06T12:36:09.722Z,23.90
2017-09-06T12:38:37.406Z,23.90
2017-09-06T12:41:05.073Z,23.80
2017-09-06T12:43:32.851Z,23.80
2017-09-06T12:46:00.699Z,23.70
2017-09-06T12:48:28.566Z,23.70
2017-09-06T12:50:56.253Z,23.70
2017-09-06T12:53:24.037Z,23.60
2017-09-06T12:55:51.786Z,23.60
2017-09-06T12:58:19.507Z,23.50
2017-09-06T13:00:47.262Z,23.50
2017-09-06T13:03:15.017Z,23.40
2017-09-06T13:05:42.711Z,23.40
2017-09-06T13:08:10.392Z,23.30
2017-09-06T13:10:38.118Z,23.30
2017-09-06T13:13:05.782Z,23.20
2017-09-06T13:15:33.572Z,23.20
2017-09-06T13:18:01.275Z,23.10
2017-09-06T13:20:28.982Z,23.00
2017-09-06T13:22:56.704Z,23.00
2017-09-06T13:25:24.352Z,22.90
2017-09-06T13:27:52.105Z,22.90
2017-09-06T13:30:19.809Z,22.90
2017-09-06T13:32:47.506Z,22.80
2017-09-06T13:35:15.201Z,22.80
2017-09-06T13:37:42.908Z,22.70
2017-09-06T13:40:10.644Z,22.70
2017-09-06T13:42:38.336Z,22.60
2017-09-06T13:45:06.041Z,22.50
2017-09-06T13:47:33.764Z,22.40
2017-09-06T13:50:01.461Z,22.30
2017-09-06T13:52:29.208Z,22.20
2017-09-06T13:54:56.910Z,22.10
2017-09-06T13:57:24.600Z,22.00
2017-09-06T13:59:52.304Z,22.00
2017-09-06T14:02:20.772Z,22.00
2017-09-06T14:04:48.508Z,21.90
2017-09-06T14:07:16.152Z,21.80
2017-09-06T14:09:43.923Z,21.80
2017-09-06T14:12:11.640Z,21.70
2017-09-06T14:14:39.346Z,21.60
2017-09-06T14:17:07.032Z,21.50
2017-09-06T14:19:34.812Z,21.50
2017-09-06T14:22:02.461Z,21.40
2017-09-06T14:24:30.135Z,21.30
2017-09-06T14:26:57.801Z,21.30
2017-09-06T14:29:25.501Z,21.20
2017-09-06T14:31:53.225Z,21.20
2017-09-06T14:34:21.007Z,21.10
2017-09-06T14:36:48.692Z,21.00
2017-09-06T14:39:16.366Z,21.00
2017-09-06T14:41:44.265Z,20.90
2017-09-06T14:44:11.940Z,20.90
2017-09-06T14:46:39.681Z,20.80
2017-09-06T14:49:07.363Z,20.70
2017-09-06T14:51:35.070Z,20.70
2017-09-06T14:54:02.765Z,20.60
2017-09-06T14:56:30.557Z,20.60
2017-09-06T14:58:58.333Z,20.50
2017-09-06T15:01:26.115Z,20.40
2017-09-06T15:03:53.813Z,20.40
2017-09-06T15:06:21.513Z,20.40
2017-09-06T15:08:49.256Z,20.40
2017-09-06T15:11:16.963Z,20.30
2017-09-06T15:13:44.636Z,20.30
2017-09-06T15:16:12.352Z,20.30
2017-09-06T15:18:40.049Z,20.30
2017-09-06T15:21:07.803Z,20.20
2017-09-06T15:23:35.445Z,20.20
2017-09-06T15:26:03.197Z,20.20
2017-09-06T15:28:30.959Z,20.20
2017-09-06T15:30:58.753Z,20.20
2017-09-06T15:33:26.615Z,20.10
2017-09-06T15:35:54.387Z,20.10
2017-09-06T15:38:22.247Z,20.00
2017-09-06T15:40:50.088Z,19.90
2017-09-06T15:43:17.865Z,19.90
2017-09-06T15:45:45.693Z,19.90
2017-09-06T15:48:13.382Z,19.90
2017-09-06T15:50:41.256Z,19.90
2017-09-06T15:53:09.029Z,19.80
2017-09-06T15:55:36.797Z,19.80
2017-09-06T15:58:04.470Z,19.80
2017-09-06T16:00:32.204Z,19.80
2017-09-06T16:03:00.839Z,19.80
2017-09-06T16:05:28.674Z,19.70
2017-09-06T16:07:56.495Z,19.60
2017-09-06T16:10:24.219Z,19.60
2017-09-06T16:12:51.874Z,19.60
2017-09-06T16:15:19.507Z,19.60
2017-09-06T16:17:47.272Z,19.60
2017-09-06T16:20:14.885Z,19.50
2017-09-06T16:22:42.627Z,19.50
2017-09-06T16:25:10.293Z,19.50
2017-09-06T16:27:38.021Z,19.50
2017-09-06T16:30:05.783Z,19.50
2017-09-06T16:32:33.468Z,19.50
2017-09-06T16:35:01.148Z,19.40
2017-09-06T16:37:28.874Z,19.40
2017-09-06T16:39:56.510Z,19.40
2017-09-06T16:42:24.162Z,19.40
2017-09-06T16:44:51.791Z,19.40
2017-09-06T16:47:19.449Z,19.40
2017-09-06T16:49:47.282Z,19.40
2017-09-06T16:52:15.163Z,19.40
2017-09-06T16:54:42.808Z,19.40
2017-09-06T16:57:10.637Z,19.40
2017-09-06T16:59:38.280Z,19.40
2017-09-06T17:02:05.919Z,19.30
2017-09-06T17:04:33.716Z,19.30
2017-09-06T17:07:01.334Z,19.30
2017-09-06T17:09:41.908Z,19.30
2017-09-06T17:12:09.659Z,19.30
2017-09-06T17:14:37.330Z,19.30
2017-09-06T17:17:05.835Z,19.30
2017-09-06T17:19:33.468Z,19.20
2017-09-06T17:22:01.344Z,19.10
2017-09-06T17:24:29.205Z,19.10
2017-09-06T17:26:57.082Z,19.10
2017-09-06T17:29:24.925Z,19.10
2017-09-06T17:31:52.563Z,19.00
2017-09-06T17:34:20.249Z,19.00
2017-09-06T17:36:47.901Z,19.00
2017-09-06T17:39:15.688Z,19.00
2017-09-06T17:41:43.532Z,19.00
2017-09-06T17:44:11.172Z,19.00
2017-09-06T17:46:38.819Z,19.00
2017-09-06T17:49:06.747Z,19.00
2017-09-06T17:51:34.822Z,19.00
2017-09-06T17:54:02.492Z,18.90
2017-09-06T17:56:30.224Z,18.90
2017-09-06T17:58:57.953Z,18.90
2017-09-06T18:01:25.610Z,18.90
2017-09-06T18:03:53.421Z,18.80
2017-09-06T18:06:21.063Z,18.90
2017-09-06T18:08:48.690Z,18.80
2017-09-06T18:11:16.422Z,18.80
2017-09-06T18:13:44.089Z,18.80
2017-09-06T18:16:11.761Z,18.80
2017-09-06T18:18:39.411Z,18.80
2017-09-06T18:21:07.061Z,18.70
2017-09-06T18:23:34.726Z,18.70
2017-09-06T18:26:02.584Z,18.70
2017-09-06T18:28:30.246Z,18.70
2017-09-06T18:30:58.023Z,18.70
2017-09-06T18:33:25.875Z,18.70
2017-09-06T18:35:53.549Z,18.70
2017-09-06T18:38:21.200Z,18.70
2017-09-06T18:40:49.583Z,18.70
2017-09-06T18:43:17.234Z,18.60
2017-09-06T18:45:44.890Z,18.70
2017-09-06T18:48:12.531Z,18.60
2017-09-06T18:50:40.198Z,18.60
2017-09-06T18:53:07.859Z,18.60
2017-09-06T18:55:35.487Z,18.50
2017-09-06T18:58:03.280Z,18.50
2017-09-06T19:00:31.004Z,18.50
2017-09-06T19:02:58.653Z,18.50
2017-09-06T19:05:26.403Z,18.50
2017-09-06T19:07:54.059Z,18.40
2017-09-06T19:10:21.725Z,18.40
2017-09-06T19:12:49.382Z,18.40
2017-09-06T19:15:17.062Z,18.40
2017-09-06T19:17:44.819Z,18.40
2017-09-06T19:20:12.485Z,18.40
2017-09-06T19:22:40.133Z,18.40
2017-09-06T19:25:07.769Z,18.40
2017-09-06T19:27:35.486Z,18.40
2017-09-06T19:30:03.106Z,18.30
2017-09-06T19:32:30.753Z,18.30
2017-09-06T19:34:58.410Z,18.30
2017-09-06T19:37:26.659Z,18.20
2017-09-06T19:39:55.642Z,18.20
2017-09-06T19:42:23.514Z,18.10
2017-09-06T19:44:51.163Z,18.10
2017-09-06T19:47:18.787Z,18.10
2017-09-06T19:49:46.456Z,18.10
2017-09-06T19:52:14.096Z,18.10
2017-09-06T19:54:41.764Z,18.10
2017-09-06T19:57:09.381Z,18.00
2017-09-06T19:59:37.081Z,18.00
2017-09-06T20:02:04.712Z,18.00
2017-09-06T20:04:34.861Z,18.00
2017-09-06T20:07:04.942Z,17.90
2017-09-06T20:09:35.156Z,17.90
2017-09-06T20:12:05.420Z,17.90
2017-09-06T20:14:35.749Z,17.90
2017-09-06T20:17:05.792Z,17.80
2017-09-06T20:19:36.148Z,17.80
2017-09-06T20:22:06.435Z,17.70
2017-09-06T20:24:36.594Z,17.70
2017-09-06T20:27:04.551Z,17.70
2017-09-06T20:29:32.429Z,17.70
2017-09-06T20:32:00.300Z,17.60
2017-09-06T20:34:28.153Z,17.60
2017-09-06T20:36:56.023Z,17.60
2017-09-06T20:39:23.989Z,17.50
2017-09-06T20:41:51.855Z,17.50
2017-09-06T20:44:19.656Z,17.50
2017-09-06T20:46:47.419Z,17.40
2017-09-06T20:49:15.392Z,17.50
2017-09-06T20:51:43.147Z,17.40
2017-09-06T20:54:10.995Z,17.40
2017-09-06T20:56:38.773Z,17.30
2017-09-06T20:59:06.601Z,17.30
2017-09-06T21:01:34.363Z,17.30
2017-09-06T21:04:02.159Z,17.30
2017-09-06T21:06:30.009Z,17.20
2017-09-06T21:08:57.774Z,17.30
2017-09-06T21:11:25.590Z,17.20
2017-09-06T21:13:53.359Z,17.20
2017-09-06T21:16:21.158Z,17.20
2017-09-06T21:18:49.238Z,17.10
2017-09-06T21:21:17.220Z,17.10
2017-09-06T21:23:45.489Z,17.10
2017-09-06T21:26:13.397Z,17.10
2017-09-06T21:28:41.772Z,17.10
2017-09-06T21:31:09.702Z,17.00
2017-09-06T21:33:37.575Z,17.00
2017-09-06T21:36:05.541Z,17.00
2017-09-06T21:38:33.419Z,17.00
2017-09-06T21:41:01.226Z,17.00
2017-09-06T21:43:28.912Z,17.00
2017-09-06T21:45:56.797Z,17.00
2017-09-06T21:48:24.755Z,17.00
2017-09-06T21:50:52.611Z,17.00
2017-09-06T21:53:20.381Z,16.90
2017-09-06T21:55:48.686Z,16.90
2017-09-06T21:58:16.933Z,16.80
2017-09-06T22:00:44.817Z,16.80
2017-09-06T22:03:12.581Z,16.80
2017-09-06T22:05:40.245Z,16.80
2017-09-06T22:08:08.016Z,16.80
2017-09-06T22:10:35.774Z,16.70
2017-09-06T22:13:03.419Z,16.70
2017-09-06T22:15:31.086Z,16.70
2017-09-06T22:17:58.743Z,16.70
2017-09-06T22:20:26.417Z,16.60
2017-09-06T22:22:54.040Z,16.60
2017-09-06T22:25:21.829Z,16.60
2017-09-06T22:27:49.466Z,16.60
2017-09-06T22:30:17.179Z,16.60
2017-09-06T22:32:45.120Z,16.60
2017-09-06T22:35:12.774Z,16.60
2017-09-06T22:37:40.466Z,16.60
2017-09-06T22:40:08.121Z,16.50
2017-09-06T22:42:35.879Z,16.50
2017-09-06T22:45:03.634Z,16.50
2017-09-06T22:47:31.397Z,16.50
2017-09-06T22:49:59.062Z,16.50
2017-09-06T22:52:26.692Z,16.50
2017-09-06T22:54:54.357Z,16.50
2017-09-06T22:57:22.076Z,16.50
2017-09-06T22:59:49.727Z,16.50
2017-09-06T23:02:17.602Z,16.50
2017-09-06T23:04:45.247Z,16.50
2017-09-06T23:07:13.002Z,16.50
2017-09-06T23:09:40.714Z,16.50
2017-09-06T23:12:08.355Z,16.50
2017-09-06T23:14:35.976Z,16.50
2017-09-06T23:17:03.654Z,16.50
2017-09-06T23:19:31.415Z,16.50
2017-09-06T23:21:59.067Z,16.50
2017-09-06T23:24:27.062Z,16.50
2017-09-06T23:26:54.686Z,16.50
2017-09-06T23:29:22.326Z,16.50
2017-09-06T23:31:49.975Z,16.50
2017-09-06T23:34:17.599Z,16.50
2017-09-06T23:36:45.457Z,16.40
2017-09-06T23:39:13.122Z,16.40
2017-09-06T23:41:40.757Z,16.40
2017-09-06T23:44:08.454Z,16.40
2017-09-06T23:46:36.134Z,16.30
2017-09-06T23:49:03.803Z,16.30
2017-09-06T23:51:31.432Z,16.30
2017-09-06T23:53:59.089Z,16.30
2017-09-06T23:56:26.955Z,16.30
2017-09-06T23:58:54.601Z,16.30
